Time;durP1;ratioP1;P1;durP2;ratioP2;P2;SDS_P1;SDS_P2;PMS_P1;PMS_P2;Temp;Humidity;BMP_temperature;BMP_pressure;BME280_temperature;BME280_humidity;BME280_pressure;Samples;Min_cycle;Max_cycle;Signal;HPM_P1;HPM_P2
2021/10/04 00:01:21;;;;;;;21.17;2.60;;;;;;;7.67;100.00;98312.91;5031597;28;20040;-74
2021/10/04 00:03:47;;;;;;;18.15;2.70;;;;;;;7.68;100.00;98317.19;5023762;28;20069;-74
2021/10/04 00:06:13;;;;;;;24.98;3.10;;;;;;;7.68;100.00;98318.00;5012134;28;20069;-74
2021/10/04 00:08:39;;;;;;;23.30;3.30;;;;;;;7.67;100.00;98312.91;5025912;28;20129;-74
2021/10/04 00:11:04;;;;;;;23.60;2.47;;;;;;;7.69;100.00;98316.13;5023143;28;20040;-74
2021/10/04 00:13:30;;;;;;;28.15;2.85;;;;;;;7.71;100.00;98327.41;5023135;28;20037;-73
2021/10/04 00:15:58;;;;;;;26.52;2.72;;;;;;;7.71;100.00;98324.72;5017707;28;20524;-72
2021/10/04 00:18:24;;;;;;;21.50;2.65;;;;;;;7.73;100.00;98330.63;5028687;28;20088;-73
2021/10/04 00:20:50;;;;;;;20.67;2.78;;;;;;;7.74;100.00;98325.03;5011842;28;20061;-75
2021/10/04 00:23:15;;;;;;;19.33;2.63;;;;;;;7.65;100.00;98325.75;5022453;28;20076;-75
2021/10/04 00:25:42;;;;;;;20.15;3.85;;;;;;;7.64;100.00;98330.31;5025971;28;20026;-75
2021/10/04 00:28:07;;;;;;;18.52;2.42;;;;;;;7.65;100.00;98325.75;5012894;28;20475;-75
2021/10/04 00:30:33;;;;;;;33.35;3.85;;;;;;;7.58;100.00;98321.41;5021641;28;20112;-75
2021/10/04 00:32:59;;;;;;;18.60;2.50;;;;;;;7.60;100.00;98324.66;5012275;28;20026;-75
2021/10/04 00:35:26;;;;;;;27.23;2.40;;;;;;;7.61;100.00;98333.50;5024254;28;20042;-74
2021/10/04 00:37:53;;;;;;;28.48;3.20;;;;;;;7.62;100.00;98340.50;5015984;28;20056;-75
2021/10/04 00:40:22;;;;;;;18.13;3.10;;;;;;;7.65;100.00;98339.97;5030101;28;20034;-75
2021/10/04 00:42:48;;;;;;;32.38;3.53;;;;;;;7.65;100.00;98363.25;5014839;28;20029;-75
2021/10/04 00:45:14;;;;;;;22.58;2.40;;;;;;;7.62;100.00;98354.69;5017546;28;20395;-73
2021/10/04 00:47:40;;;;;;;22.38;3.20;;;;;;;7.66;100.00;98356.84;5010778;28;20147;-75
2021/10/04 00:50:08;;;;;;;21.50;2.78;;;;;;;7.60;100.00;98362.16;5013361;28;20029;-75
2021/10/04 00:52:34;;;;;;;17.70;2.78;;;;;;;7.61;100.00;98358.41;5027404;28;20426;-75
2021/10/04 00:55:00;;;;;;;28.10;2.97;;;;;;;7.59;100.00;98359.75;5025916;28;20390;-75
2021/10/04 00:57:27;;;;;;;33.33;3.00;;;;;;;7.54;100.00;98363.19;5012236;28;20033;-75
2021/10/04 00:59:53;;;;;;;35.05;3.22;;;;;;;7.50;100.00;98367.44;5011312;28;20117;-74
2021/10/04 01:02:19;;;;;;;23.98;2.75;;;;;;;7.44;100.00;98368.47;5021853;28;20037;-75
2021/10/04 01:04:45;;;;;;;25.98;3.00;;;;;;;7.38;100.00;98375.69;5012165;28;20475;-75
2021/10/04 01:07:11;;;;;;;23.50;3.17;;;;;;;7.33;100.00;98376.44;5023144;28;20096;-75
2021/10/04 01:09:37;;;;;;;37.28;4.10;;;;;;;7.34;100.00;98382.59;5012207;28;20041;-75
2021/10/04 01:12:04;;;;;;;33.22;3.40;;;;;;;7.36;100.00;98387.69;5022253;28;20037;-76
2021/10/04 01:14:30;;;;;;;35.83;3.53;;;;;;;7.38;100.00;98380.22;5009275;28;20026;-75
2021/10/04 01:16:56;;;;;;;30.65;3.42;;;;;;;7.32;100.00;98387.41;5010471;28;20781;-76
2021/10/04 01:19:22;;;;;;;26.52;3.30;;;;;;;7.33;100.00;98384.47;5023507;28;20034;-76
2021/10/04 01:21:47;;;;;;;33.35;4.20;;;;;;;7.33;100.00;98383.66;5021927;28;20045;-76
2021/10/04 01:24:17;;;;;;;31.13;4.07;;;;;;;7.28;100.00;98389.78;5023459;28;20402;-77
2021/10/04 01:26:44;;;;;;;25.83;3.67;;;;;;;7.30;100.00;98381.50;5020988;28;20491;-77
2021/10/04 01:29:10;;;;;;;39.60;4.20;;;;;;;7.28;100.00;98389.78;5012165;28;20029;-77
2021/10/04 01:31:36;;;;;;;30.70;4.55;;;;;;;7.28;100.00;98395.13;5012929;28;20427;-77
2021/10/04 01:34:06;;;;;;;32.88;4.82;;;;;;;7.23;100.00;98397.75;5022067;28;20034;-76
2021/10/04 01:36:33;;;;;;;43.90;5.43;;;;;;;7.24;100.00;98388.66;5015958;28;20040;-77
2021/10/04 01:38:59;;;;;;;41.97;4.90;;;;;;;7.17;100.00;98396.09;5028407;28;20029;-76
2021/10/04 01:41:25;;;;;;;42.50;4.47;;;;;;;7.16;100.00;98389.13;5027443;28;20112;-75
2021/10/04 01:43:53;;;;;;;34.58;4.22;;;;;;;7.15;100.00;98390.19;5018436;28;20037;-76
2021/10/04 01:46:19;;;;;;;26.83;4.72;;;;;;;7.22;100.00;98390.78;5024417;28;20021;-76
2021/10/04 01:48:45;;;;;;;35.20;4.43;;;;;;;7.18;100.00;98387.00;5029045;28;20487;-75
2021/10/04 01:51:11;;;;;;;30.02;4.20;;;;;;;7.19;100.00;98393.97;5027596;28;20037;-76
2021/10/04 01:53:38;;;;;;;42.60;5.07;;;;;;;7.23;100.00;98395.09;5014076;28;20512;-74
2021/10/04 01:56:04;;;;;;;40.50;5.72;;;;;;;7.21;100.00;98388.38;5025682;28;20030;-74
2021/10/04 01:58:31;;;;;;;35.28;4.47;;;;;;;7.17;100.00;98391.56;5019131;28;20030;-74
2021/10/04 02:00:57;;;;;;;36.05;4.95;;;;;;;7.14;100.00;98385.88;5014859;28;20088;-74
2021/10/04 02:03:23;;;;;;;42.35;6.10;;;;;;;7.16;100.00;98386.44;5011725;28;20029;-74
2021/10/04 02:05:49;;;;;;;33.08;4.45;;;;;;;7.11;100.00;98379.19;5027879;28;20465;-74
2021/10/04 02:08:15;;;;;;;49.97;5.85;;;;;;;7.15;100.00;98382.16;5026901;28;20036;-74
2021/10/04 02:10:41;;;;;;;29.92;4.28;;;;;;;7.15;100.00;98374.94;5024539;28;20029;-75
2021/10/04 02:13:09;;;;;;;31.80;4.68;;;;;;;7.15;100.00;98382.97;5021806;28;20045;-75
2021/10/04 02:15:36;;;;;;;42.65;5.00;;;;;;;7.17;100.00;98374.69;5024385;28;20022;-75
2021/10/04 02:18:03;;;;;;;59.33;6.80;;;;;;;7.25;100.00;98373.41;5022500;28;20376;-75
2021/10/04 02:20:32;;;;;;;29.52;5.90;;;;;;;7.26;100.00;98377.72;5019426;28;20096;-75
2021/10/04 02:23:07;;;;;;;30.35;5.63;;;;;;;7.27;100.00;98382.81;5023543;28;20117;-75
2021/10/04 02:25:37;;;;;;;50.45;6.50;;;;;;;7.28;100.00;98379.06;5024685;28;20042;-75
2021/10/04 02:28:04;;;;;;;29.27;4.95;;;;;;;7.29;100.00;98383.34;5021843;28;20036;-75
2021/10/04 02:30:30;;;;;;;41.80;6.35;;;;;;;7.30;100.00;98384.19;5024655;28;20034;-75
2021/10/04 02:32:55;;;;;;;50.20;6.05;;;;;;;7.32;100.00;98382.84;5021609;28;20552;-75
2021/10/04 02:35:22;;;;;;;38.30;6.45;;;;;;;7.30;100.00;98379.59;5025053;28;20030;-75
2021/10/04 02:37:51;;;;;;;46.17;6.10;;;;;;;7.27;100.00;98382.81;5025417;28;20037;-75
2021/10/04 02:40:17;;;;;;;26.00;5.15;;;;;;;7.29;100.00;98380.69;5018142;28;20034;-75
2021/10/04 02:42:44;;;;;;;43.20;5.93;;;;;;;7.31;100.00;98375.88;5021792;28;20494;-75
2021/10/04 02:45:11;;;;;;;34.53;4.38;;;;;;;7.26;100.00;98375.81;5016009;28;20112;-75
2021/10/04 02:47:37;;;;;;;40.53;4.78;;;;;;;7.18;100.00;98384.31;5031953;28;20403;-76
2021/10/04 02:50:06;;;;;;;30.02;4.93;;;;;;;7.12;100.00;98377.31;5016488;28;20586;-72
2021/10/04 02:52:32;;;;;;;25.00;4.45;;;;;;;7.13;100.00;98382.41;5028045;28;20479;-78
2021/10/04 02:54:58;;;;;;;34.72;5.18;;;;;;;7.22;100.00;98381.97;5027518;28;20108;-74
2021/10/04 02:57:24;;;;;;;36.00;4.80;;;;;;;7.28;100.00;98381.75;5014954;28;20450;-75
2021/10/04 02:59:50;;;;;;;35.55;5.07;;;;;;;7.26;100.00;98388.44;5025889;28;20034;-76
2021/10/04 03:02:16;;;;;;;33.72;5.05;;;;;;;7.22;100.00;98392.66;5031191;28;20083;-72
2021/10/04 03:04:41;;;;;;;42.05;5.50;;;;;;;7.18;100.00;98389.69;5025275;28;20030;-71
2021/10/04 03:07:07;;;;;;;29.70;4.20;;;;;;;7.16;100.00;98399.84;5016844;28;20033;-70
2021/10/04 03:09:33;;;;;;;29.10;4.90;;;;;;;7.14;100.00;98392.06;5030753;28;20072;-72
2021/10/04 03:11:58;;;;;;;38.60;4.55;;;;;;;7.15;100.00;98393.69;5020709;28;20045;-72
2021/10/04 03:14:24;;;;;;;38.63;4.57;;;;;;;7.09;100.00;98401.91;5028740;28;20570;-71
2021/10/04 03:16:50;;;;;;;30.50;4.30;;;;;;;7.07;100.00;98402.19;5018870;28;20057;-74
2021/10/04 03:19:16;;;;;;;33.30;5.10;;;;;;;7.10;100.00;98403.53;5030020;28;20036;-76
2021/10/04 03:21:42;;;;;;;36.63;5.75;;;;;;;7.03;100.00;98414.41;5025987;28;20387;-75
2021/10/04 03:24:10;;;;;;;31.67;5.53;;;;;;;7.01;100.00;98411.19;5017230;28;20868;-73
2021/10/04 03:26:36;;;;;;;29.65;6.22;;;;;;;6.96;100.00;98411.13;5030207;28;20045;-72
2021/10/04 03:29:03;;;;;;;26.90;6.50;;;;;;;6.93;100.00;98414.31;5015149;28;20104;-77
2021/10/04 03:31:29;;;;;;;39.58;7.63;;;;;;;6.95;100.00;98412.19;5020321;28;20116;-76
2021/10/04 03:33:54;;;;;;;36.38;7.43;;;;;;;6.93;100.00;98411.63;5016144;28;20030;-73
2021/10/04 03:36:20;;;;;;;50.30;8.48;;;;;;;6.92;100.00;98415.38;5039178;28;20037;-77
2021/10/04 03:38:46;;;;;;;34.28;8.30;;;;;;;6.96;100.00;98411.13;5024942;28;20033;-79
2021/10/04 03:41:12;;;;;;;35.78;8.35;;;;;;;6.91;100.00;98411.06;5015437;28;20030;-73
2021/10/04 03:43:37;;;;;;;32.92;8.77;;;;;;;6.94;100.00;98415.94;5030867;28;20096;-74
2021/10/04 03:46:04;;;;;;;31.13;9.93;;;;;;;6.97;100.00;98413.56;5026532;28;20067;-72
2021/10/04 03:48:30;;;;;;;35.05;10.15;;;;;;;6.98;100.00;98419.72;5014296;28;20057;-72
2021/10/04 03:50:56;;;;;;;44.33;10.88;;;;;;;7.01;100.00;98419.22;5021871;28;20490;-71
2021/10/04 03:53:22;;;;;;;37.25;10.65;;;;;;;7.05;100.00;98420.34;5012161;28;20045;-72
2021/10/04 03:55:48;;;;;;;38.20;10.55;;;;;;;7.10;100.00;98417.72;5013678;28;20050;-73
2021/10/04 03:58:14;;;;;;;36.38;9.88;;;;;;;7.12;100.00;98412.13;5016652;28;20104;-74
2021/10/04 04:00:40;;;;;;;41.63;9.68;;;;;;;7.05;100.00;98420.34;5016275;28;20032;-73
2021/10/04 04:03:06;;;;;;;34.08;9.73;;;;;;;7.02;100.00;98423.50;5015481;28;20034;-75
2021/10/04 04:05:32;;;;;;;29.50;8.00;;;;;;;6.96;100.00;98419.16;5026572;28;20668;-75
2021/10/04 04:07:59;;;;;;;30.45;8.23;;;;;;;6.90;100.00;98418.31;5020217;28;20037;-76
2021/10/04 04:10:25;;;;;;;40.80;8.25;;;;;;;6.85;100.00;98413.69;5023913;28;20044;-75
2021/10/04 04:12:51;;;;;;;27.20;8.40;;;;;;;6.82;100.00;98416.88;5029457;28;20517;-75
2021/10/04 04:15:18;;;;;;;32.60;7.95;;;;;;;6.78;100.00;98418.44;5017237;28;20084;-75
2021/10/04 04:17:54;;;;;;;27.67;7.55;;;;;;;6.77;100.00;98413.34;5023567;28;20130;-74
2021/10/04 04:20:24;;;;;;;26.23;7.25;;;;;;;6.77;100.00;98419.50;5012743;28;20049;-73
2021/10/04 04:23:00;;;;;;;24.17;6.30;;;;;;;6.73;100.00;98427.22;5022530;28;20041;-74
2021/10/04 04:25:25;;;;;;;30.75;6.72;;;;;;;6.69;100.00;98434.13;5027271;28;20040;-75
2021/10/04 04:27:51;;;;;;;26.10;5.88;;;;;;;6.73;100.00;98421.06;5028834;28;20046;-75
2021/10/04 04:30:17;;;;;;;24.90;5.20;;;;;;;6.68;100.00;98431.69;5025490;28;20491;-75
2021/10/04 04:32:44;;;;;;;23.98;4.70;;;;;;;6.67;100.00;98425.56;5016270;28;20072;-74
2021/10/04 04:35:10;;;;;;;16.70;4.15;;;;;;;6.65;100.00;98435.69;5020127;28;20055;-75
2021/10/04 04:37:39;;;;;;;24.85;4.30;;;;;;;6.65;100.00;98440.22;5017602;28;20033;-75
2021/10/04 04:40:07;;;;;;;25.45;3.63;;;;;;;6.66;100.00;98439.16;5026804;28;20037;-75
2021/10/04 04:42:33;;;;;;;23.77;3.50;;;;;;;6.62;100.00;98430.84;5018474;28;20026;-74
2021/10/04 04:44:59;;;;;;;17.27;4.07;;;;;;;6.60;100.00;98435.63;5015205;28;20037;-74
2021/10/04 04:47:25;;;;;;;16.30;3.47;;;;;;;6.55;100.00;98433.69;5028638;28;20044;-76
2021/10/04 04:49:51;;;;;;;15.57;3.30;;;;;;;6.55;100.00;98438.25;5012711;28;20430;-74
2021/10/04 04:52:16;;;;;;;21.17;3.50;;;;;;;6.59;100.00;98442.03;5029711;28;20037;-74
2021/10/04 04:54:42;;;;;;;14.43;3.10;;;;;;;6.57;100.00;98438.81;5028353;28;20030;-74
2021/10/04 04:57:08;;;;;;;23.33;3.75;;;;;;;6.52;100.00;98434.19;5027284;28;20065;-74
2021/10/04 04:59:34;;;;;;;15.60;3.50;;;;;;;6.51;100.00;98442.47;5020804;28;20112;-74
2021/10/04 05:02:01;;;;;;;23.20;4.28;;;;;;;6.52;100.00;98439.53;5014337;28;20494;-75
2021/10/04 05:04:28;;;;;;;22.58;4.68;;;;;;;6.58;100.00;98435.06;5010469;28;20483;-75
2021/10/04 05:06:54;;;;;;;30.52;5.05;;;;;;;6.51;100.00;98432.56;5012684;28;20060;-75
2021/10/04 05:09:19;;;;;;;21.08;4.68;;;;;;;6.49;100.00;98436.56;5016346;28;20057;-75
2021/10/04 05:11:45;;;;;;;26.15;5.38;;;;;;;6.51;100.00;98434.44;5029346;28;20034;-75
2021/10/04 05:14:11;;;;;;;23.90;5.72;;;;;;;6.49;100.00;98436.56;5025733;28;20045;-74
2021/10/04 05:16:37;;;;;;;24.17;6.50;;;;;;;6.55;100.00;98441.72;5019447;28;20053;-75
2021/10/04 05:19:03;;;;;;;24.95;7.40;;;;;;;6.56;100.00;98447.88;5023776;28;20102;-74
2021/10/04 05:21:29;;;;;;;27.45;8.10;;;;;;;6.57;100.00;98436.91;5017673;28;20034;-75
2021/10/04 05:23:55;;;;;;;31.88;8.35;;;;;;;6.59;100.00;98442.84;5014785;28;20025;-74
2021/10/04 05:26:21;;;;;;;32.15;8.13;;;;;;;6.56;100.00;98440.66;5016049;28;20167;-74
2021/10/04 05:28:46;;;;;;;32.42;8.25;;;;;;;6.57;100.00;98438.81;5016399;28;20045;-74
2021/10/04 05:31:12;;;;;;;27.95;8.30;;;;;;;6.61;100.00;98436.44;5021510;28;20025;-74
2021/10/04 05:33:38;;;;;;;31.05;8.38;;;;;;;6.61;100.00;98441.78;5019218;28;20068;-73
2021/10/04 05:36:04;;;;;;;27.48;8.52;;;;;;;6.59;100.00;98440.16;5022519;28;20026;-74
2021/10/04 05:38:31;;;;;;;34.63;8.02;;;;;;;6.61;100.00;98452.47;5023342;28;20041;-74
2021/10/04 05:40:57;;;;;;;30.48;9.32;;;;;;;6.63;100.00;98442.34;5017248;28;20029;-74
2021/10/04 05:43:22;;;;;;;28.20;9.00;;;;;;;6.64;100.00;98444.78;5022125;28;20045;-75
2021/10/04 05:45:49;;;;;;;22.83;8.07;;;;;;;6.58;100.00;98449.25;5019132;28;20061;-75
2021/10/04 05:48:15;;;;;;;34.60;11.60;;;;;;;6.61;100.00;98447.94;5010497;28;20135;-75
2021/10/04 05:50:41;;;;;;;45.72;20.17;;;;;;;6.62;100.00;98446.91;5031632;28;20035;-74
2021/10/04 05:53:07;;;;;;;65.18;29.17;;;;;;;6.59;100.00;98447.38;5024962;28;20033;-75
2021/10/04 05:55:33;;;;;;;57.80;32.17;;;;;;;6.58;100.00;98448.44;5024925;28;20048;-74
2021/10/04 05:57:58;;;;;;;51.72;29.63;;;;;;;6.55;100.00;98452.41;5026642;28;20112;-75
2021/10/04 06:00:24;;;;;;;54.33;28.67;;;;;;;6.60;100.00;98451.69;5027194;28;20608;-75
2021/10/04 06:02:50;;;;;;;50.42;23.60;;;;;;;6.63;100.00;98456.53;5024119;28;20037;-75
2021/10/04 06:05:16;;;;;;;49.13;21.92;;;;;;;6.70;100.00;98456.34;5023798;28;20026;-75
2021/10/04 06:07:42;;;;;;;37.85;21.77;;;;;;;6.66;100.00;98458.72;5030709;28;20072;-75
2021/10/04 06:10:12;;;;;;;41.67;20.92;;;;;;;6.67;100.00;98459.50;5030048;28;20037;-75
2021/10/04 06:12:40;;;;;;;46.97;19.60;;;;;;;6.69;100.00;98466.25;5015768;28;20049;-76
2021/10/04 06:15:06;;;;;;;39.85;17.98;;;;;;;6.66;100.00;98461.38;5014331;28;20109;-77
2021/10/04 06:17:32;;;;;;;49.70;17.40;;;;;;;6.74;100.00;98460.13;5026464;28;20368;-76
2021/10/04 06:19:58;;;;;;;40.35;17.42;;;;;;;6.83;100.00;98464.00;5018998;28;20671;-77
2021/10/04 06:22:25;;;;;;;35.45;19.38;;;;;;;6.98;100.00;98460.69;5019893;28;20554;-77
2021/10/04 06:24:50;;;;;;;42.50;16.80;;;;;;;7.01;100.00;98457.53;5023785;28;20126;-77
2021/10/04 06:27:17;;;;;;;33.00;14.65;;;;;;;7.05;100.00;98457.81;5018231;28;20041;-75
2021/10/04 06:29:42;;;;;;;42.03;13.75;;;;;;;7.14;100.00;98459.00;5012965;28;20112;-81
2021/10/04 06:32:09;;;;;;;32.95;12.88;;;;;;;7.22;100.00;98457.72;5016985;28;20499;-84
2021/10/04 06:34:35;;;;;;;29.23;11.40;;;;;;;7.33;100.00;98455.97;5013961;28;20021;-79
2021/10/04 06:37:01;;;;;;;31.05;10.70;;;;;;;7.38;100.00;98456.03;5017951;28;20556;-84
2021/10/04 06:39:27;;;;;;;24.20;9.25;;;;;;;7.46;100.00;98462.78;5027204;28;20037;-79
2021/10/04 06:41:52;;;;;;;27.60;8.80;;;;;;;7.54;100.00;98458.84;5022551;28;20113;-80
2021/10/04 06:44:19;;;;;;;23.73;7.68;;;;;;;7.54;100.00;98464.22;5026163;28;20075;-81
2021/10/04 06:46:44;;;;;;;21.55;7.70;;;;;;;7.59;100.00;98467.72;5022934;28;20038;-80
2021/10/04 06:49:11;;;;;;;17.55;6.95;;;;;;;7.65;100.00;98470.47;5018537;28;20053;-80
2021/10/04 06:51:37;;;;;;;23.20;7.60;;;;;;;7.72;100.00;98471.88;5015040;28;20458;-79
2021/10/04 06:54:02;;;;;;;17.13;5.65;;;;;;;7.79;100.00;98470.84;5025939;28;20514;-78
2021/10/04 06:56:30;;;;;;;22.80;5.65;;;;;;;7.87;100.00;98473.84;5025885;28;20041;-81
2021/10/04 06:58:57;;;;;;;17.15;5.75;;;;;;;7.90;100.00;98473.34;5030443;28;20120;-81
2021/10/04 07:01:23;;;;;;;17.95;5.20;;;;;;;7.93;100.00;98471.22;5023297;28;20067;-81
2021/10/04 07:03:49;;;;;;;16.35;4.90;;;;;;;8.03;100.00;98479.38;5025504;28;20033;-81
2021/10/04 07:06:15;;;;;;;17.00;5.78;;;;;;;8.09;100.00;98481.03;5022403;28;20084;-81
2021/10/04 07:08:40;;;;;;;14.95;4.80;;;;;;;8.13;100.00;98484.81;5025264;28;20487;-81
2021/10/04 07:11:06;;;;;;;17.25;4.50;;;;;;;8.28;100.00;98478.72;5021241;28;20484;-83
2021/10/04 07:13:32;;;;;;;18.65;4.47;;;;;;;8.31;100.00;98488.13;5018764;28;20042;-82
2021/10/04 07:15:57;;;;;;;14.80;3.92;;;;;;;8.33;100.00;98494.84;5023506;28;20033;-84
2021/10/04 07:18:23;;;;;;;14.80;3.97;;;;;;;8.40;100.00;98493.81;5020377;28;20038;-82
2021/10/04 07:20:49;;;;;;;15.40;4.28;;;;;;;8.41;100.00;98496.25;5013705;28;20037;-83
2021/10/04 07:23:15;;;;;;;15.05;3.70;;;;;;;8.41;100.00;98504.31;5018120;28;20513;-82
2021/10/04 07:25:41;;;;;;;16.40;3.30;;;;;;;8.45;100.00;98501.91;5019299;28;20030;-84
2021/10/04 07:28:08;;;;;;;17.40;3.58;;;;;;;8.50;100.00;98504.63;5018599;28;20042;-83
2021/10/04 07:30:34;;;;;;;15.00;3.20;;;;;;;8.61;100.00;98505.53;5018342;28;20025;-84
2021/10/04 07:33:02;;;;;;;13.18;3.17;;;;;;;8.66;100.00;98504.72;5018580;28;20152;-83
2021/10/04 07:35:28;;;;;;;15.18;3.22;;;;;;;8.76;100.00;98502.09;5014945;28;20132;-84
2021/10/04 07:37:54;;;;;;;13.60;3.30;;;;;;;8.85;100.00;98510.47;5018986;28;20715;-84
2021/10/04 07:40:22;;;;;;;12.65;3.17;;;;;;;8.75;100.00;98505.84;5022151;28;20033;-84
2021/10/04 07:42:48;;;;;;;16.17;3.45;;;;;;;8.76;100.00;98508.28;5016594;28;20033;-84
2021/10/04 07:45:14;;;;;;;18.35;3.40;;;;;;;8.81;100.00;98518.22;5022535;28;20387;-82
2021/10/04 07:47:40;;;;;;;17.65;3.00;;;;;;;8.90;100.00;98522.06;5013365;28;20234;-82
2021/10/04 07:50:10;;;;;;;13.82;3.00;;;;;;;8.95;100.00;98523.16;5022083;28;20118;-83
2021/10/04 07:52:36;;;;;;;14.35;2.60;;;;;;;8.91;100.00;98522.84;5015121;28;20125;-81
2021/10/04 07:55:02;;;;;;;9.27;2.08;;;;;;;8.90;100.00;98519.38;5025368;28;20061;-83
2021/10/04 07:57:28;;;;;;;11.07;3.00;;;;;;;8.95;100.00;98517.78;5019600;28;20029;-83
2021/10/04 07:59:54;;;;;;;12.82;2.85;;;;;;;8.95;100.00;98518.56;5020840;28;20498;-80
2021/10/04 08:02:20;;;;;;;9.68;2.50;;;;;;;9.02;100.00;98523.72;5018011;28;20036;-82
2021/10/04 08:04:45;;;;;;;9.82;2.20;;;;;;;9.07;99.43;98518.38;5017662;28;20455;-83
2021/10/04 08:07:11;;;;;;;17.52;2.60;;;;;;;9.05;99.20;98518.63;5016984;28;20487;-84
2021/10/04 08:09:37;;;;;;;8.25;1.98;;;;;;;9.15;99.11;98523.22;5016695;28;20025;-78
2021/10/04 08:12:03;;;;;;;5.85;2.10;;;;;;;9.22;99.54;98520.28;5011976;28;20034;-78
2021/10/04 08:14:30;;;;;;;12.85;2.30;;;;;;;9.28;98.60;98516.53;5012771;28;20040;-78
2021/10/04 08:16:56;;;;;;;8.20;2.63;;;;;;;9.25;98.43;98509.00;5011787;28;20034;-79
2021/10/04 08:19:23;;;;;;;10.07;2.40;;;;;;;9.34;98.73;98512.78;5009863;28;20025;-78
2021/10/04 08:21:48;;;;;;;14.75;3.15;;;;;;;9.48;98.09;98512.28;5011074;28;20037;-77
2021/10/04 08:24:14;;;;;;;11.23;2.72;;;;;;;9.50;97.48;98515.53;5014805;28;20632;-79
2021/10/04 08:26:40;;;;;;;7.25;2.55;;;;;;;9.57;98.12;98516.06;5022123;28;20069;-79
2021/10/04 08:29:07;;;;;;;8.02;3.20;;;;;;;9.69;96.11;98515.00;5013188;28;20037;-78
2021/10/04 08:31:33;;;;;;;12.95;3.85;;;;;;;9.70;95.99;98509.38;5022217;28;20034;-78
2021/10/04 08:34:01;;;;;;;12.85;3.58;;;;;;;9.74;95.96;98518.53;5026534;28;20099;-78
2021/10/04 08:36:29;;;;;;;14.35;3.63;;;;;;;9.77;95.72;98512.63;5020323;28;20037;-77
2021/10/04 08:38:55;;;;;;;14.73;3.80;;;;;;;9.76;95.42;98516.38;5014082;28;20037;-77
2021/10/04 08:41:22;;;;;;;19.08;4.32;;;;;;;9.84;95.95;98520.44;5010791;28;20057;-79
2021/10/04 08:43:50;;;;;;;16.98;4.40;;;;;;;9.86;95.17;98520.97;5013629;28;20085;-80
2021/10/04 08:46:18;;;;;;;10.15;3.90;;;;;;;9.85;94.84;98521.22;5009703;28;20080;-77
2021/10/04 08:48:46;;;;;;;13.98;3.45;;;;;;;9.93;94.72;98521.50;5011960;28;20049;-78
2021/10/04 08:51:12;;;;;;;8.90;3.13;;;;;;;9.93;94.37;98518.81;5012960;28;20122;-76
2021/10/04 08:53:39;;;;;;;10.57;2.95;;;;;;;9.96;93.08;98522.84;5010563;28;20076;-79
2021/10/04 08:56:05;;;;;;;8.65;2.63;;;;;;;10.04;93.12;98518.81;5016520;28;20441;-78
2021/10/04 08:58:35;;;;;;;10.70;2.70;;;;;;;10.08;92.54;98522.59;5022642;28;20036;-77
2021/10/04 09:01:05;;;;;;;16.27;2.60;;;;;;;10.14;92.71;98528.75;5015723;28;20034;-77
2021/10/04 09:03:47;;;;;;;16.42;3.13;;;;;;;10.29;92.27;98526.06;5014510;28;20034;-78
2021/10/04 09:06:36;;;;;;;11.40;2.13;;;;;;;10.37;91.23;98525.50;5023207;28;20025;-77
2021/10/04 09:09:08;;;;;;;6.28;1.65;;;;;;;10.47;91.03;98523.91;5010755;28;20034;-79
2021/10/04 09:11:39;;;;;;;13.45;2.33;;;;;;;10.34;90.64;98531.44;5019575;28;20026;-80
2021/10/04 09:14:16;;;;;;;9.93;1.40;;;;;;;10.29;91.07;98526.06;5010757;28;20104;-80
2021/10/04 09:17:02;;;;;;;6.10;1.50;;;;;;;10.30;91.36;98529.56;5011350;28;20042;-79
2021/10/04 09:19:34;;;;;;;9.48;1.50;;;;;;;10.31;90.87;98529.28;5014468;28;20455;-79
2021/10/04 09:22:21;;;;;;;10.10;1.40;;;;;;;10.47;88.67;98530.13;5014822;28;20029;-79
2021/10/04 09:24:49;;;;;;;10.20;1.17;;;;;;;10.46;88.99;98535.75;5026981;28;20129;-80
2021/10/04 09:27:37;;;;;;;10.25;1.58;;;;;;;10.50;88.25;98534.97;5009447;28;20041;-90
2021/10/04 09:30:12;;;;;;;11.85;1.27;;;;;;;10.77;87.75;98541.13;5015743;28;20045;-79
2021/10/04 09:32:40;;;;;;;6.22;1.23;;;;;;;10.77;87.50;98525.75;5010360;28;20131;-79
2021/10/04 09:35:11;;;;;;;7.93;1.40;;;;;;;10.65;87.03;98533.31;5009058;28;20121;-78
2021/10/04 09:37:38;;;;;;;8.55;1.45;;;;;;;10.53;87.42;98530.91;5015930;28;20061;-78
2021/10/04 09:40:05;;;;;;;7.30;1.00;;;;;;;10.52;87.64;98527.41;5016531;28;20095;-76
2021/10/04 09:42:39;;;;;;;16.90;2.13;;;;;;;10.56;88.12;98524.19;5013667;28;20057;-76
2021/10/04 09:45:05;;;;;;;11.27;1.35;;;;;;;10.53;87.19;98528.22;5011216;28;20026;-76
2021/10/04 09:47:32;;;;;;;6.72;1.15;;;;;;;10.48;87.34;98518.28;5012109;28;20084;-76
2021/10/04 09:50:06;;;;;;;11.18;1.48;;;;;;;10.53;88.01;98520.97;5012798;28;20037;-80
2021/10/04 09:52:44;;;;;;;4.60;0.98;;;;;;;10.78;87.26;98527.38;5015443;28;20048;-81
2021/10/04 09:55:26;;;;;;;8.35;1.30;;;;;;;10.94;86.59;98520.06;5019573;28;20052;-78
2021/10/04 09:58:03;;;;;;;5.60;1.00;;;;;;;10.83;85.00;98526.56;5015716;28;20042;-86
2021/10/04 10:00:33;;;;;;;6.63;1.13;;;;;;;10.87;84.39;98532.19;5013987;28;20091;-71
2021/10/04 10:03:00;;;;;;;7.72;1.58;;;;;;;10.98;84.91;98523.81;5011694;28;20549;-70
2021/10/04 10:05:28;;;;;;;5.68;1.00;;;;;;;10.85;83.85;98532.47;5016954;28;20037;-68
2021/10/04 10:07:54;;;;;;;6.57;1.15;;;;;;;10.82;84.22;98535.72;5011624;28;20439;-70
2021/10/04 10:10:21;;;;;;;7.82;1.52;;;;;;;10.94;85.52;98541.59;5010214;28;20077;-70
2021/10/04 10:12:47;;;;;;;11.93;1.55;;;;;;;10.92;85.22;98542.94;5014323;28;20471;-68
2021/10/04 10:15:27;;;;;;;8.93;1.40;;;;;;;10.96;84.71;98541.31;5009483;28;20041;-70
2021/10/04 10:18:01;;;;;;;5.57;1.10;;;;;;;11.18;83.68;98535.59;5010499;28;20033;-68
2021/10/04 10:20:29;;;;;;;5.63;0.90;;;;;;;11.32;83.68;98543.84;5012782;28;20487;-70
2021/10/04 10:22:55;;;;;;;6.10;1.25;;;;;;;11.40;82.43;98535.19;5009741;28;20391;-71
2021/10/04 10:25:31;;;;;;;13.60;1.40;;;;;;;11.50;81.31;98531.66;5012301;28;20372;-71
2021/10/04 10:27:57;;;;;;;9.20;1.40;;;;;;;11.62;82.45;98531.31;5012159;28;20450;-72
2021/10/04 10:30:24;;;;;;;8.88;1.75;;;;;;;11.65;81.08;98546.13;5012081;28;20109;-71
2021/10/04 10:32:51;;;;;;;10.50;0.90;;;;;;;11.88;81.52;98551.91;5010432;28;20472;-71
2021/10/04 10:35:17;;;;;;;9.05;1.48;;;;;;;11.83;80.75;98540.06;5014155;28;20026;-71
2021/10/04 10:37:51;;;;;;;6.93;0.93;;;;;;;11.79;81.03;98547.13;5025508;28;20044;-72
2021/10/04 10:40:26;;;;;;;8.70;1.23;;;;;;;11.94;81.35;98559.69;5026024;28;20034;-72
2021/10/04 10:43:09;;;;;;;8.80;1.20;;;;;;;12.17;79.69;98557.41;5021913;28;20033;-73
2021/10/04 10:45:39;;;;;;;10.15;1.27;;;;;;;12.26;78.63;98560.28;5020207;28;20045;-72
2021/10/04 10:48:05;;;;;;;9.40;1.10;;;;;;;12.18;77.62;98555.50;5020530;28;20090;-74
2021/10/04 10:51:00;;;;;;;5.18;0.90;;;;;;;12.46;76.61;98551.22;5020647;28;20124;-71
2021/10/04 10:53:29;;;;;;;6.32;1.23;;;;;;;12.32;76.36;98564.56;5024034;28;20042;-71
2021/10/04 10:56:04;;;;;;;5.22;0.93;;;;;;;11.98;76.51;98554.53;5015335;28;20030;-72
2021/10/04 10:58:35;;;;;;;6.00;1.10;;;;;;;11.89;77.53;98561.63;5023419;28;20037;-72
2021/10/04 11:01:13;;;;;;;4.82;0.90;;;;;;;11.88;77.64;98558.13;5024147;28;20124;-71
2021/10/04 11:03:51;;;;;;;6.53;0.93;;;;;;;11.97;75.99;98564.53;5018285;28;20026;-70
2021/10/04 11:06:17;;;;;;;6.53;1.13;;;;;;;12.04;74.82;98568.84;5024301;28;20029;-72
2021/10/04 11:08:53;;;;;;;4.22;0.98;;;;;;;12.19;74.68;98568.72;5019490;28;20037;-72
2021/10/04 11:11:20;;;;;;;7.90;1.10;;;;;;;12.22;74.59;98573.56;5020292;28;20038;-72
2021/10/04 11:14:07;;;;;;;7.60;0.98;;;;;;;12.07;74.68;98574.47;5021445;28;20045;-72
2021/10/04 11:16:38;;;;;;;9.23;1.38;;;;;;;12.03;75.66;98567.22;5011078;28;20550;-71
2021/10/04 11:19:05;;;;;;;6.57;1.17;;;;;;;11.93;75.81;98566.19;5010208;28;20487;-72
2021/10/04 11:21:32;;;;;;;2.78;0.88;;;;;;;12.02;76.69;98565.63;5008336;28;20017;-72
2021/10/04 11:24:03;;;;;;;5.88;1.15;;;;;;;12.08;76.31;98562.59;5025328;28;20519;-72
2021/10/04 11:26:28;;;;;;;6.43;1.23;;;;;;;11.96;75.97;98565.63;5024802;28;20047;-72
2021/10/04 11:28:57;;;;;;;5.85;0.80;;;;;;;11.98;74.97;98560.75;5022224;28;20030;-71